Time;durP1;ratioP1;P1;durP2;ratioP2;P2;SDS_P1;SDS_P2;PMS_P1;PMS_P2;Temp;Humidity;BMP_temperature;BMP_pressure;BME280_temperature;BME280_humidity;BME280_pressure;Samples;Min_cycle;Max_cycle;Signal;HPM_P1;HPM_P2
2022/10/12 00:01:09;;;;;;;14.00;3.13;;;7.60;99.90;;;;;;5143790;27;20548;-66
2022/10/12 00:03:35;;;;;;;11.23;3.05;;;7.60;99.90;;;;;;5148852;27;20035;-66
2022/10/12 00:06:07;;;;;;;7.57;2.92;;;7.70;99.90;;;;;;5150944;27;20035;-66
2022/10/12 00:08:34;;;;;;;8.98;2.35;;;7.60;99.90;;;;;;5133094;27;20450;-66
2022/10/12 00:11:00;;;;;;;6.85;2.50;;;7.60;99.90;;;;;;5152478;27;20130;-66
2022/10/12 00:13:26;;;;;;;8.40;2.50;;;7.60;99.90;;;;;;5153424;27;20629;-66
2022/10/12 00:15:52;;;;;;;7.30;2.60;;;7.60;99.90;;;;;;5149057;27;20046;-66
2022/10/12 00:18:18;;;;;;;10.35;3.45;;;7.60;99.90;;;;;;5148195;27;20061;-66
2022/10/12 00:20:44;;;;;;;9.98;2.85;;;7.50;99.90;;;;;;5148159;27;20480;-66
2022/10/12 00:23:10;;;;;;;8.35;3.53;;;7.50;99.90;;;;;;5129452;27;20042;-66
2022/10/12 00:25:40;;;;;;;15.63;3.13;;;7.50;99.90;;;;;;5121891;27;20057;-66
2022/10/12 00:28:06;;;;;;;;;;;7.50;99.90;;;;;;5150430;27;20045;-66
2022/10/12 00:30:33;;;;;;;8.30;2.75;;;7.50;99.90;;;;;;5130852;27;19919;-66
2022/10/12 00:32:58;;;;;;;7.47;3.00;;;7.50;99.90;;;;;;5130230;27;20519;-66
2022/10/12 00:35:28;;;;;;;5.05;2.30;;;7.50;99.90;;;;;;5131330;27;20085;-66
2022/10/12 00:37:54;;;;;;;7.35;2.45;;;7.50;99.90;;;;;;5148679;27;20043;-66
2022/10/12 00:40:22;;;;;;;9.13;3.38;;;7.40;99.90;;;;;;5149914;27;20049;-66
2022/10/12 00:42:48;;;;;;;11.63;3.67;;;7.40;99.90;;;;;;5148753;27;20047;-66
2022/10/12 00:45:15;;;;;;;15.70;4.15;;;7.40;99.90;;;;;;5149736;27;20037;-66
2022/10/12 00:47:48;;;;;;;8.95;3.40;;;7.40;99.90;;;;;;5129917;27;20035;-66
2022/10/12 00:50:31;;;;;;;11.23;3.03;;;7.40;99.90;;;;;;5149412;27;20411;-66
2022/10/12 00:53:08;;;;;;;9.75;3.42;;;7.40;99.90;;;;;;5149127;27;20039;-66
2022/10/12 00:55:39;;;;;;;17.42;3.78;;;7.40;99.90;;;;;;5148204;27;20104;-66
2022/10/12 00:58:07;;;;;;;14.52;3.30;;;7.40;99.90;;;;;;5130803;27;20548;-66
2022/10/12 01:00:34;;;;;;;13.40;3.25;;;7.40;99.90;;;;;;5148704;27;20134;-66
2022/10/12 01:03:00;;;;;;;6.90;2.70;;;7.40;99.90;;;;;;5148827;27;20047;-66
2022/10/12 01:05:27;;;;;;;11.52;3.55;;;7.40;99.90;;;;;;5149300;27;20462;-66
2022/10/12 01:07:52;;;;;;;8.95;3.03;;;7.40;99.90;;;;;;5112547;27;20039;-66
2022/10/12 01:10:18;;;;;;;15.02;3.22;;;7.40;99.90;;;;;;5149547;27;20100;-66
2022/10/12 01:12:47;;;;;;;13.18;3.47;;;7.40;99.90;;;;;;5128647;27;20509;-66
2022/10/12 01:15:13;;;;;;;22.83;2.60;;;7.40;99.90;;;;;;5130892;27;20049;-66
2022/10/12 01:17:41;;;;;;;15.85;2.83;;;7.40;99.90;;;;;;5128918;27;20039;-66
2022/10/12 01:20:26;;;;;;;59.88;2.88;;;7.40;99.90;;;;;;5129037;27;20051;-66
2022/10/12 01:23:33;;;;;;;4.97;2.05;;;7.40;99.90;;;;;;5127424;27;20069;-66
2022/10/12 01:26:36;;;;;;;12.15;2.20;;;7.40;99.90;;;;;;5062725;27;20579;-65
2022/10/12 01:29:10;;;;;;;113.47;3.35;;;7.40;99.90;;;;;;5147944;27;20068;-65
2022/10/12 01:31:45;;;;;;;28.42;1.67;;;7.30;99.90;;;;;;5149028;27;20046;-65
2022/10/12 01:34:11;;;;;;;17.67;2.08;;;7.20;99.90;;;;;;5147647;27;20145;-65
2022/10/12 01:36:41;;;;;;;10.38;2.00;;;7.20;99.90;;;;;;5148711;27;20527;-65
2022/10/12 01:39:19;;;;;;;8.88;1.63;;;7.10;99.90;;;;;;5129218;27;20042;-65
2022/10/12 01:41:56;;;;;;;2.10;1.58;;;7.10;99.90;;;;;;5148016;27;20039;-65
2022/10/12 01:44:24;;;;;;;4.70;2.70;;;7.00;99.90;;;;;;5148333;27;20130;-65
2022/10/12 01:46:52;;;;;;;11.20;2.85;;;7.00;99.90;;;;;;5147166;27;20042;-65
2022/10/12 01:49:26;;;;;;;6.65;2.47;;;7.00;99.90;;;;;;5148944;27;20050;-66
2022/10/12 01:52:03;;;;;;;43.45;3.05;;;7.00;99.90;;;;;;5128965;27;20073;-66
2022/10/12 01:55:01;;;;;;;41.38;2.15;;;7.00;99.90;;;;;;5129984;27;20046;-66
2022/10/12 01:57:39;;;;;;;15.45;1.80;;;6.90;99.90;;;;;;5136483;27;20046;-65
2022/10/12 02:00:15;;;;;;;19.48;1.85;;;6.90;99.90;;;;;;5147395;27;20043;-65
2022/10/12 02:02:47;;;;;;;14.90;2.00;;;6.80;99.90;;;;;;5148562;27;20038;-65
2022/10/12 02:05:22;;;;;;;4.72;1.70;;;6.70;99.90;;;;;;5120784;27;20079;-91
2022/10/12 02:07:53;;;;;;;8.77;1.70;;;6.70;99.90;;;;;;5139886;27;20054;-66
2022/10/12 02:10:26;;;;;;;4.03;1.52;;;6.60;99.90;;;;;;5126451;27;20560;-65
2022/10/12 02:12:56;;;;;;;2.22;1.60;;;6.60;99.90;;;;;;5147158;27;20043;-65
2022/10/12 02:15:25;;;;;;;3.65;1.60;;;6.60;99.90;;;;;;5129708;27;20053;-91
2022/10/12 02:17:52;;;;;;;7.25;2.30;;;6.70;99.90;;;;;;5128198;27;20046;-65
2022/10/12 02:20:20;;;;;;;7.38;2.22;;;6.60;99.90;;;;;;5130206;27;20091;-66
2022/10/12 02:22:49;;;;;;;2.78;1.75;;;6.60;99.90;;;;;;5129365;27;20111;-66
2022/10/12 02:25:18;;;;;;;3.30;2.03;;;6.60;99.90;;;;;;5147778;27;20075;-65
2022/10/12 02:27:54;;;;;;;2.65;1.65;;;6.60;99.90;;;;;;5129212;27;20086;-65
2022/10/12 02:30:19;;;;;;;5.85;2.15;;;6.70;99.90;;;;;;5147430;27;20057;-65
2022/10/12 02:33:10;;;;;;;4.30;2.05;;;6.70;99.90;;;;;;5148438;27;20046;-65
2022/10/12 02:35:53;;;;;;;8.43;1.92;;;6.70;99.90;;;;;;5147224;27;20046;-90
2022/10/12 02:38:26;;;;;;;8.63;2.30;;;6.70;99.90;;;;;;5146747;27;20039;-66
2022/10/12 02:40:57;;;;;;;5.20;2.22;;;6.70;99.90;;;;;;5129274;27;20042;-65
2022/10/12 02:43:37;;;;;;;25.88;2.25;;;6.70;99.90;;;;;;5146781;27;20055;-65
2022/10/12 02:46:06;;;;;;;20.00;1.90;;;6.70;99.90;;;;;;5129056;27;20050;-66
2022/10/12 02:48:33;;;;;;;31.67;2.33;;;6.70;99.90;;;;;;5147080;27;20129;-66
2022/10/12 02:51:01;;;;;;;14.73;1.20;;;6.70;99.90;;;;;;5128926;27;20074;-90
2022/10/12 02:53:28;;;;;;;4.05;1.05;;;6.70;99.90;;;;;;5129061;27;20043;-66
2022/10/12 02:56:03;;;;;;;12.93;1.42;;;6.70;99.90;;;;;;5151227;27;20045;-95
2022/10/12 02:58:29;;;;;;;7.15;1.50;;;6.60;99.90;;;;;;5132410;27;20515;-66
2022/10/12 03:00:54;;;;;;;2.78;1.67;;;6.60;99.90;;;;;;5150028;27;20622;-65
2022/10/12 03:03:20;;;;;;;1.42;1.30;;;6.60;99.90;;;;;;5132867;27;20035;-91
2022/10/12 03:05:46;;;;;;;14.75;1.52;;;6.60;99.90;;;;;;5150270;27;20081;-66
2022/10/12 03:08:11;;;;;;;2.35;1.40;;;6.50;99.90;;;;;;5151332;27;20050;-66
2022/10/12 03:10:37;;;;;;;3.53;1.70;;;6.50;99.90;;;;;;5132002;27;20091;-75
2022/10/12 03:13:03;;;;;;;3.65;1.73;;;6.50;99.90;;;;;;5150244;27;20051;-87
2022/10/12 03:15:29;;;;;;;5.38;1.40;;;6.50;99.90;;;;;;5132722;27;20049;-66
2022/10/12 03:17:55;;;;;;;5.00;2.47;;;6.50;99.90;;;;;;5149933;27;20038;-72
2022/10/12 03:20:20;;;;;;;6.68;1.80;;;6.50;99.90;;;;;;5132572;27;20134;-66
2022/10/12 03:22:46;;;;;;;7.50;1.60;;;6.50;99.90;;;;;;5149872;27;20037;-89
2022/10/12 03:25:12;;;;;;;9.07;2.00;;;6.50;99.90;;;;;;5150883;27;20090;-66
2022/10/12 03:27:38;;;;;;;4.47;1.92;;;6.50;99.90;;;;;;5131425;27;20049;-66
2022/10/12 03:30:04;;;;;;;3.63;1.52;;;6.50;99.90;;;;;;5150446;27;20385;-65
2022/10/12 03:32:29;;;;;;;33.85;2.10;;;6.60;99.90;;;;;;5150867;27;20106;-65
2022/10/12 03:34:55;;;;;;;5.82;1.90;;;6.60;99.90;;;;;;5131383;27;20057;-66
2022/10/12 03:37:21;;;;;;;6.05;1.67;;;6.60;99.90;;;;;;5150480;27;20129;-66
2022/10/12 03:39:47;;;;;;;3.85;1.40;;;6.60;99.90;;;;;;5130925;27;20502;-66
2022/10/12 03:42:12;;;;;;;5.00;1.77;;;6.50;99.90;;;;;;5132285;27;20066;-66
2022/10/12 03:44:38;;;;;;;7.03;2.25;;;6.50;99.90;;;;;;5143017;27;20489;-66
2022/10/12 03:47:04;;;;;;;8.90;1.58;;;6.50;99.90;;;;;;5113154;27;20046;-66
2022/10/12 03:49:30;;;;;;;5.65;1.85;;;6.50;99.90;;;;;;5131396;27;20074;-66
2022/10/12 03:51:55;;;;;;;5.53;1.90;;;6.60;99.90;;;;;;5149994;27;20467;-84
2022/10/12 03:54:21;;;;;;;7.00;1.83;;;6.60;99.90;;;;;;5140571;27;20121;-66
2022/10/12 03:56:46;;;;;;;3.47;2.20;;;6.60;99.90;;;;;;5149444;27;20395;-65
2022/10/12 03:59:12;;;;;;;5.18;2.10;;;6.60;99.90;;;;;;5149977;27;20070;-94
2022/10/12 04:01:38;;;;;;;6.82;1.65;;;6.60;99.90;;;;;;5149526;27;20038;-66
2022/10/12 04:04:04;;;;;;;11.07;1.80;;;6.60;99.90;;;;;;5150285;27;20039;-88
2022/10/12 04:06:29;;;;;;;5.70;1.83;;;6.60;99.90;;;;;;5148595;27;20038;-66
2022/10/12 04:08:55;;;;;;;9.05;2.40;;;6.60;99.90;;;;;;5131437;27;20042;-66
2022/10/12 04:11:21;;;;;;;6.82;2.40;;;6.60;99.90;;;;;;5130891;27;20392;-65
2022/10/12 04:13:47;;;;;;;8.40;2.33;;;6.60;99.90;;;;;;5131230;27;20437;-66
2022/10/12 04:16:13;;;;;;;9.95;2.70;;;6.60;99.90;;;;;;5149936;27;20031;-66
2022/10/12 04:18:39;;;;;;;5.55;2.47;;;6.60;99.90;;;;;;5149075;27;20103;-66
2022/10/12 04:21:11;;;;;;;10.43;2.33;;;6.60;99.90;;;;;;5149305;27;20381;-92
2022/10/12 04:23:36;;;;;;;13.00;2.50;;;6.70;99.90;;;;;;5149125;27;20046;-66
2022/10/12 04:26:02;;;;;;;5.93;2.20;;;6.70;99.90;;;;;;5149515;27;20062;-65
2022/10/12 04:28:28;;;;;;;7.75;2.03;;;6.70;99.90;;;;;;5134158;27;20038;-86
2022/10/12 04:30:54;;;;;;;3.60;2.05;;;6.70;99.90;;;;;;5155655;27;20046;-66
2022/10/12 04:33:19;;;;;;;2.90;1.73;;;6.70;99.90;;;;;;5139531;27;20043;-68
2022/10/12 04:35:45;;;;;;;4.75;1.80;;;6.70;99.90;;;;;;5150985;27;20046;-67
2022/10/12 04:38:12;;;;;;;4.15;1.70;;;6.70;99.90;;;;;;5131395;27;20043;-65
2022/10/12 04:40:38;;;;;;;4.18;3.10;;;6.70;99.90;;;;;;5148479;27;20430;-65
2022/10/12 04:43:03;;;;;;;7.05;1.90;;;6.60;99.90;;;;;;5150168;27;20125;-67
2022/10/12 04:45:29;;;;;;;8.65;2.63;;;6.60;99.90;;;;;;5148212;27;20130;-66
2022/10/12 04:47:55;;;;;;;4.68;2.20;;;6.60;99.90;;;;;;5149718;27;20039;-67
2022/10/12 04:50:21;;;;;;;7.22;2.30;;;6.50;99.90;;;;;;5130398;27;20058;-66
2022/10/12 04:52:47;;;;;;;3.33;2.00;;;6.50;99.90;;;;;;5148182;27;20078;-66
2022/10/12 04:55:13;;;;;;;5.97;2.05;;;6.50;99.90;;;;;;5148331;27;20484;-66
2022/10/12 04:57:39;;;;;;;9.27;2.10;;;6.50;99.90;;;;;;5148993;27;20031;-65
2022/10/12 05:00:06;;;;;;;9.35;2.30;;;6.40;99.90;;;;;;5131095;27;20049;-90
2022/10/12 05:02:32;;;;;;;8.73;2.40;;;6.40;99.90;;;;;;5148655;27;20077;-72
2022/10/12 05:04:58;;;;;;;7.95;2.65;;;6.40;99.90;;;;;;5149227;27;20073;-67
2022/10/12 05:07:23;;;;;;;13.85;2.67;;;6.40;99.90;;;;;;5147787;27;20415;-86
2022/10/12 05:09:49;;;;;;;8.85;2.55;;;6.40;99.90;;;;;;5149562;27;20035;-66
2022/10/12 05:12:15;;;;;;;13.05;2.75;;;6.40;99.90;;;;;;5148900;27;20497;-66
2022/10/12 05:14:43;;;;;;;10.52;2.88;;;6.50;99.90;;;;;;5113173;27;20039;-65
2022/10/12 05:17:09;;;;;;;8.25;4.15;;;6.50;99.90;;;;;;5148134;27;20088;-66
2022/10/12 05:19:35;;;;;;;15.45;2.90;;;6.50;99.90;;;;;;5147801;27;20035;-66
2022/10/12 05:22:01;;;;;;;9.88;2.88;;;6.60;99.90;;;;;;5149292;27;20096;-66
2022/10/12 05:24:27;;;;;;;12.73;3.72;;;6.60;99.90;;;;;;5111855;27;20461;-66
2022/10/12 05:26:53;;;;;;;10.15;3.40;;;6.60;99.90;;;;;;5149038;27;20126;-66
2022/10/12 05:29:19;;;;;;;11.32;3.03;;;6.60;99.90;;;;;;5147838;27;20332;-66
2022/10/12 05:31:44;;;;;;;11.40;3.38;;;6.60;99.90;;;;;;5112524;27;20042;-66
2022/10/12 05:34:10;;;;;;;13.60;3.10;;;6.60;99.90;;;;;;5148559;27;20035;-66
2022/10/12 05:36:36;;;;;;;10.80;3.90;;;6.60;99.90;;;;;;5147539;27;20044;-65
2022/10/12 05:39:02;;;;;;;10.73;3.15;;;6.60;99.90;;;;;;5129607;27;20035;-66
2022/10/12 05:41:27;;;;;;;5.50;2.80;;;6.60;99.90;;;;;;5146716;27;20049;-66
2022/10/12 05:43:53;;;;;;;13.35;2.92;;;6.60;99.90;;;;;;5149264;27;20112;-66
2022/10/12 05:46:19;;;;;;;10.35;2.97;;;6.60;99.90;;;;;;5147281;27;20495;-66
2022/10/12 05:48:44;;;;;;;8.00;3.60;;;6.60;99.90;;;;;;5148680;27;20038;-66
2022/10/12 05:51:10;;;;;;;12.18;3.80;;;6.50;99.90;;;;;;5129816;27;20039;-65
2022/10/12 05:53:36;;;;;;;14.40;3.30;;;6.50;99.90;;;;;;5147068;27;20396;-65
2022/10/12 05:56:02;;;;;;;10.00;3.03;;;6.50;99.90;;;;;;5130176;27;20038;-84
2022/10/12 05:58:29;;;;;;;8.25;3.10;;;6.60;99.90;;;;;;5128342;27;20035;-66
2022/10/12 06:01:02;;;;;;;12.73;3.78;;;6.60;99.90;;;;;;5129585;27;20087;-71
2022/10/12 06:03:28;;;;;;;12.70;3.53;;;6.50;99.90;;;;;;5147343;27;20042;-77
2022/10/12 06:05:54;;;;;;;14.45;3.15;;;6.50;99.90;;;;;;5148456;27;20047;-67
2022/10/12 06:08:19;;;;;;;12.55;3.85;;;6.40;99.90;;;;;;5128507;27;20043;-80
2022/10/12 06:10:48;;;;;;;9.05;3.42;;;6.40;99.90;;;;;;5147973;27;20049;-68
2022/10/12 06:13:16;;;;;;;13.35;3.75;;;6.40;99.90;;;;;;5136221;27;20484;-66
2022/10/12 06:15:47;;;;;;;11.82;3.92;;;6.40;99.90;;;;;;5147411;27;20073;-65
2022/10/12 06:18:13;;;;;;;17.63;4.22;;;6.30;99.90;;;;;;5148766;27;20387;-78
2022/10/12 06:20:39;;;;;;;7.78;2.92;;;6.40;99.90;;;;;;5146935;27;20050;-66
2022/10/12 06:23:05;;;;;;;14.38;3.00;;;6.40;99.90;;;;;;5148006;27;20053;-66
2022/10/12 06:25:31;;;;;;;13.00;3.47;;;6.40;99.90;;;;;;5146895;27;20584;-65
2022/10/12 06:27:56;;;;;;;12.05;3.85;;;6.40;99.90;;;;;;5150065;27;20035;-88
2022/10/12 06:30:22;;;;;;;6.78;3.15;;;6.40;99.90;;;;;;5132979;27;20053;-66
2022/10/12 06:32:48;;;;;;;8.43;3.33;;;6.40;99.90;;;;;;5150641;27;20110;-76
2022/10/12 06:35:13;;;;;;;10.13;3.35;;;6.30;99.90;;;;;;5135545;27;20544;-65
2022/10/12 06:37:39;;;;;;;9.70;3.65;;;6.30;99.90;;;;;;5139038;27;20068;-93
2022/10/12 06:40:05;;;;;;;7.35;4.00;;;6.30;99.90;;;;;;5153571;27;20035;-66
2022/10/12 06:42:31;;;;;;;8.98;3.63;;;6.30;99.90;;;;;;5153768;27;20100;-66
2022/10/12 06:44:57;;;;;;;7.38;3.15;;;6.30;99.90;;;;;;5136443;27;20030;-66
2022/10/12 06:47:22;;;;;;;10.80;3.60;;;6.30;99.90;;;;;;5153820;27;20039;-66
2022/10/12 06:49:48;;;;;;;11.32;4.40;;;6.30;99.90;;;;;;5135468;27;20484;-66
2022/10/12 06:52:14;;;;;;;13.85;4.68;;;6.40;99.90;;;;;;5135859;27;20083;-66
2022/10/12 06:54:40;;;;;;;14.60;3.88;;;6.50;99.90;;;;;;5135017;27;20494;-66
2022/10/12 06:57:06;;;;;;;17.50;3.55;;;6.50;99.90;;;;;;5154898;27;20107;-66
2022/10/12 06:59:32;;;;;;;10.57;3.17;;;6.60;99.90;;;;;;5153479;27;20434;-66
2022/10/12 07:01:57;;;;;;;7.72;3.58;;;6.60;99.90;;;;;;5154221;27;20031;-66
2022/10/12 07:04:23;;;;;;;10.77;3.85;;;6.60;99.90;;;;;;5135176;27;20053;-83
2022/10/12 07:06:49;;;;;;;9.82;4.00;;;6.70;99.90;;;;;;5135802;27;20222;-65
2022/10/12 07:09:16;;;;;;;7.28;3.45;;;6.80;99.90;;;;;;5154388;27;20047;-66
2022/10/12 07:11:42;;;;;;;13.52;3.58;;;6.90;99.90;;;;;;5153378;27;20069;-66
2022/10/12 07:14:07;;;;;;;11.70;3.50;;;6.90;99.90;;;;;;5136414;27;20043;-66
2022/10/12 07:16:33;;;;;;;22.52;4.32;;;7.00;99.90;;;;;;5126605;27;20473;-91
2022/10/12 07:18:59;;;;;;;15.02;3.70;;;7.10;99.90;;;;;;5148927;27;20058;-66
2022/10/12 07:21:25;;;;;;;15.05;4.78;;;7.20;99.90;;;;;;5134529;27;20046;-66
2022/10/12 07:23:51;;;;;;;14.93;4.40;;;7.30;99.90;;;;;;5135551;27;20547;-66
2022/10/12 07:26:17;;;;;;;11.98;3.80;;;7.40;99.90;;;;;;5154116;27;20050;-65
2022/10/12 07:28:43;;;;;;;17.52;5.03;;;7.50;99.90;;;;;;5135550;27;20077;-66
2022/10/12 07:31:09;;;;;;;12.70;4.55;;;7.60;99.90;;;;;;5154361;27;20489;-66
2022/10/12 07:33:37;;;;;;;15.90;4.45;;;7.80;99.90;;;;;;5153316;27;20039;-66
2022/10/12 07:36:04;;;;;;;9.90;3.97;;;7.90;99.90;;;;;;5135767;27;20466;-65
2022/10/12 07:38:30;;;;;;;19.75;5.65;;;8.10;99.90;;;;;;5150281;27;20492;-66
2022/10/12 07:41:01;;;;;;;14.52;5.10;;;8.20;99.90;;;;;;5140639;27;20046;-90
2022/10/12 07:43:28;;;;;;;16.52;4.88;;;8.30;99.90;;;;;;5148390;27;20050;-66
2022/10/12 07:45:54;;;;;;;16.75;4.90;;;8.50;99.90;;;;;;5131511;27;20496;-91
2022/10/12 07:48:20;;;;;;;17.45;5.03;;;8.60;99.90;;;;;;5150797;27;20039;-81
2022/10/12 07:50:46;;;;;;;17.90;5.22;;;8.70;99.90;;;;;;5120692;27;20057;-66
2022/10/12 07:53:12;;;;;;;15.82;5.35;;;8.90;99.90;;;;;;5132408;27;20043;-91
2022/10/12 07:55:38;;;;;;;20.92;6.18;;;8.90;99.90;;;;;;5149021;27;20042;-65
2022/10/12 07:58:04;;;;;;;18.00;5.85;;;9.00;99.90;;;;;;5130021;27;20055;-76
2022/10/12 08:00:30;;;;;;;16.17;4.72;;;9.10;99.90;;;;;;5130976;27;20023;-65
2022/10/12 08:02:56;;;;;;;9.60;4.43;;;9.30;99.90;;;;;;5150701;27;20049;-91
2022/10/12 08:05:23;;;;;;;12.07;4.35;;;9.40;99.90;;;;;;5131749;27;20031;-92
2022/10/12 08:07:50;;;;;;;11.85;4.65;;;9.50;99.90;;;;;;5149721;27;20095;-93
2022/10/12 08:10:17;;;;;;;14.18;4.72;;;9.60;99.90;;;;;;5148235;27;20484;-65
2022/10/12 08:12:44;;;;;;;17.25;5.60;;;9.70;99.90;;;;;;5130496;27;20043;-66
2022/10/12 08:15:10;;;;;;;10.65;4.50;;;9.90;99.90;;;;;;5122171;27;20035;-94
2022/10/12 08:17:36;;;;;;;20.48;6.30;;;10.00;99.90;;;;;;5113373;27;20103;-66
2022/10/12 08:20:03;;;;;;;17.95;5.65;;;10.20;99.90;;;;;;5150689;27;20043;-66
2022/10/12 08:22:28;;;;;;;13.60;5.13;;;10.30;99.90;;;;;;5149147;27;20068;-65
2022/10/12 08:24:54;;;;;;;13.55;5.13;;;10.40;99.90;;;;;;5150122;27;20516;-65
2022/10/12 08:27:20;;;;;;;13.05;5.20;;;10.40;99.90;;;;;;5149201;27;20035;-76
2022/10/12 08:29:46;;;;;;;15.75;5.40;;;10.40;99.90;;;;;;5130295;27;20081;-66
2022/10/12 08:32:12;;;;;;;18.23;4.82;;;10.40;99.90;;;;;;5131652;27;20043;-66
2022/10/12 08:34:38;;;;;;;14.23;4.38;;;10.40;99.90;;;;;;5147050;27;20050;-93
2022/10/12 08:37:03;;;;;;;18.27;3.60;;;10.40;99.90;;;;;;5131302;27;20039;-66
2022/10/12 08:39:29;;;;;;;21.40;4.10;;;10.40;99.90;;;;;;5145869;27;20719;-66
2022/10/12 08:42:07;;;;;;;19.70;4.18;;;10.40;99.90;;;;;;5121698;27;20084;-66
2022/10/12 08:44:50;;;;;;;29.52;5.15;;;10.30;99.90;;;;;;5142249;27;20034;-66
2022/10/12 08:47:51;;;;;;;18.85;4.95;;;10.40;99.90;;;;;;5126944;27;20497;-66
2022/10/12 08:50:38;;;;;;;15.60;3.67;;;10.60;99.90;;;;;;5147697;27;20031;-76
2022/10/12 08:53:16;;;;;;;22.00;5.00;;;10.80;99.90;;;;;;5140758;27;20262;-66
2022/10/12 08:55:44;;;;;;;10.73;4.03;;;10.90;99.90;;;;;;5127577;27;20038;-66
2022/10/12 08:58:23;;;;;;;13.13;4.25;;;11.10;99.90;;;;;;5142341;27;20557;-66
2022/10/12 09:01:03;;;;;;;15.13;4.05;;;11.10;99.90;;;;;;5123074;27;20130;-66
2022/10/12 09:03:50;;;;;;;12.40;3.83;;;11.20;99.90;;;;;;5133192;27;20039;-66
2022/10/12 09:06:20;;;;;;;10.30;3.08;;;11.30;99.90;;;;;;5127679;27;20491;-68
2022/10/12 09:08:55;;;;;;;15.82;3.78;;;11.40;99.90;;;;;;5121514;27;20328;-66
2022/10/12 09:11:26;;;;;;;12.35;4.15;;;11.50;99.90;;;;;;5127739;27;20308;-66
2022/10/12 09:13:59;;;;;;;17.70;4.05;;;11.60;99.90;;;;;;5139003;27;20043;-66
2022/10/12 09:16:31;;;;;;;13.68;3.92;;;11.70;99.90;;;;;;5139505;27;20039;-67
2022/10/12 09:19:07;;;;;;;16.13;3.83;;;11.80;99.90;;;;;;5119839;27;20053;-67
2022/10/12 09:21:33;;;;;;;15.98;3.75;;;11.90;99.90;;;;;;5138977;27;20535;-66
2022/10/12 09:24:02;;;;;;;11.32;3.85;;;11.80;99.90;;;;;;5120024;27;20053;-66
2022/10/12 09:26:36;;;;;;;10.75;3.80;;;11.90;99.90;;;;;;5114044;27;20042;-67
2022/10/12 09:29:19;;;;;;;15.27;3.92;;;11.90;99.90;;;;;;5133930;27;20096;-75
2022/10/12 09:32:09;;;;;;;13.02;3.58;;;12.00;99.90;;;;;;5112472;27;20039;-67
2022/10/12 09:34:35;;;;;;;21.65;3.95;;;12.20;99.90;;;;;;5109887;27;20469;-67
2022/10/12 09:37:03;;;;;;;17.02;3.38;;;12.30;99.90;;;;;;5138403;27;20039;-79
2022/10/12 09:39:36;;;;;;;12.25;3.92;;;12.50;99.90;;;;;;5125879;27;20133;-68
2022/10/12 09:42:03;;;;;;;11.90;3.25;;;12.70;99.90;;;;;;5129536;27;20046;-67
2022/10/12 09:44:44;;;;;;;15.40;4.28;;;12.90;99.90;;;;;;5128534;27;20057;-78
2022/10/12 09:47:28;;;;;;;15.38;3.40;;;13.10;99.90;;;;;;5129208;27;20049;-68
2022/10/12 09:50:03;;;;;;;15.98;3.70;;;13.30;99.90;;;;;;5129851;27;20098;-72
2022/10/12 09:52:34;;;;;;;15.88;3.90;;;13.40;99.90;;;;;;5128791;27;20503;-83
2022/10/12 09:55:05;;;;;;;20.65;4.57;;;13.40;99.90;;;;;;5129672;27;20042;-68
2022/10/12 09:57:38;;;;;;;;;;;13.50;99.90;;;;;;5112904;27;20263;-68
2022/10/12 10:00:31;;;;;;;8.98;3.28;;;13.50;99.90;;;;;;5130195;27;19929;-68
2022/10/12 10:02:57;;;;;;;13.38;4.15;;;13.40;99.90;;;;;;5129366;27;20404;-67
2022/10/12 10:05:35;;;;;;;16.48;4.03;;;13.40;99.90;;;;;;5127810;27;20078;-82
2022/10/12 10:08:13;;;;;;;14.90;4.10;;;13.40;99.90;;;;;;5129566;27;20098;-84
2022/10/12 10:10:50;;;;;;;18.63;3.30;;;13.40;99.90;;;;;;5128113;27;20050;-76
2022/10/12 10:13:16;;;;;;;18.58;3.83;;;13.50;99.90;;;;;;5130121;27;20105;-67
2022/10/12 10:15:47;;;;;;;18.15;3.65;;;13.50;99.90;;;;;;5111689;27;20034;-67
2022/10/12 10:18:27;;;;;;;;;;;13.50;99.90;;;;;;5129652;27;20060;-67
2022/10/12 10:20:58;;;;;;;12.48;3.40;;;13.60;99.90;;;;;;5129116;27;19926;-67
2022/10/12 10:23:26;;;;;;;13.68;3.05;;;13.90;99.90;;;;;;5128453;27;20043;-90
2022/10/12 10:26:02;;;;;;;12.38;3.33;;;14.00;99.90;;;;;;5128591;27;20047;-68
2022/10/12 10:28:31;;;;;;;14.30;3.22;;;14.30;99.90;;;;;;5112086;27;20126;-68
2022/10/12 10:31:02;;;;;;;11.35;3.15;;;14.40;99.90;;;;;;5146433;27;20043;-67
2022/10/12 10:34:08;;;;;;;;;;;14.50;99.90;;;;;;5147849;27;20042;-75
2022/10/12 10:36:57;;;;;;;19.90;3.05;;;14.60;99.90;;;;;;5133714;27;19914;-67
2022/10/12 10:39:49;;;;;;;7.63;2.83;;;14.70;97.70;;;;;;5132527;27;20061;-71
2022/10/12 10:42:34;;;;;;;11.90;2.95;;;14.80;96.40;;;;;;5142029;27;20639;-69
2022/10/12 10:45:25;;;;;;;13.77;3.60;;;14.90;95.90;;;;;;5120074;27;20315;-83
2022/10/12 10:48:15;;;;;;;15.75;2.55;;;14.90;94.80;;;;;;5135750;27;20038;-67
2022/10/12 10:50:48;;;;;;;12.13;2.47;;;14.90;93.00;;;;;;5116507;27;20051;-68
2022/10/12 10:53:21;;;;;;;11.68;2.40;;;15.00;95.70;;;;;;5109090;27;20055;-86
2022/10/12 10:56:06;;;;;;;14.93;2.88;;;15.00;90.00;;;;;;5113326;27;20090;-69
2022/10/12 10:58:37;;;;;;;10.63;2.60;;;15.00;86.20;;;;;;5123057;27;20635;-68
2022/10/12 11:01:28;;;;;;;12.15;2.67;;;15.00;81.50;;;;;;5111677;27;20062;-69
2022/10/12 11:04:14;;;;;;;14.10;2.53;;;15.10;81.60;;;;;;5109605;27;20047;-68
2022/10/12 11:06:42;;;;;;;13.90;2.70;;;15.10;76.40;;;;;;5103727;27;20404;-68
2022/10/12 11:09:16;;;;;;;10.60;2.30;;;15.10;70.90;;;;;;5116893;27;20049;-68
2022/10/12 11:11:44;;;;;;;18.08;2.92;;;15.10;75.60;;;;;;5122771;27;20046;-93
2022/10/12 11:14:33;;;;;;;7.47;1.85;;;15.10;78.20;;;;;;5121622;27;20121;-67
2022/10/12 11:17:32;;;;;;;10.10;2.13;;;15.20;80.00;;;;;;5114180;27;20077;-68
2022/10/12 11:20:22;;;;;;;9.63;2.05;;;15.20;74.30;;;;;;5119321;27;20281;-74
2022/10/12 11:22:53;;;;;;;14.88;2.47;;;15.30;78.90;;;;;;5111226;27;20050;-67
2022/10/12 11:25:37;;;;;;;10.35;2.20;;;15.30;74.60;;;;;;5124847;27;20524;-68
2022/10/12 11:28:06;;;;;;;8.75;2.25;;;15.30;75.60;;;;;;5128917;27;20043;-74
2022/10/12 11:30:40;;;;;;;10.38;2.63;;;15.30;67.70;;;;;;5123553;27;20072;-67
2022/10/12 11:33:14;;;;;;;13.40;2.28;;;15.30;69.40;;;;;;5149467;27;20034;-68
2022/10/12 11:35:43;;;;;;;6.32;2.00;;;15.30;71.20;;;;;;5115584;27;20042;-80
2022/10/12 11:38:29;;;;;;;11.00;2.58;;;15.40;74.70;;;;;;5131812;27;20045;-90
2022/10/12 11:41:13;;;;;;;10.70;2.50;;;15.40;68.20;;;;;;5131846;27;20569;-67
2022/10/12 11:43:55;;;;;;;13.57;3.25;;;15.50;61.40;;;;;;5109286;27;20065;-68
2022/10/12 11:46:33;;;;;;;11.48;2.35;;;15.40;64.10;;;;;;5133667;27;20050;-69
2022/10/12 11:49:06;;;;;;;14.68;2.08;;;15.40;65.40;;;;;;5133644;27;20107;-67
2022/10/12 11:51:31;;;;;;;22.60;2.72;;;15.50;64.30;;;;;;5119781;27;20054;-68
2022/10/12 11:54:16;;;;;;;9.23;1.80;;;15.50;62.90;;;;;;5133555;27;20115;-67
2022/10/12 11:56:50;;;;;;;8.35;1.80;;;15.50;64.70;;;;;;5128137;27;20051;-68
2022/10/12 11:59:29;;;;;;;20.27;2.55;;;15.60;61.70;;;;;;5121386;27;20125;-95
2022/10/12 12:02:13;;;;;;;8.50;1.80;;;15.60;59.40;;;;;;5122560;27;20096;-68
2022/10/12 12:04:45;;;;;;;8.43;2.00;;;15.60;59.40;;;;;;5101987;27;20046;-68
2022/10/12 12:07:43;;;;;;;7.25;1.80;;;15.70;60.50;;;;;;5115777;27;20046;-67
2022/10/12 12:10:42;;;;;;;7.93;1.95;;;15.70;59.70;;;;;;5112457;27;20052;-69
2022/10/12 12:13:20;;;;;;;9.23;2.13;;;15.80;52.40;;;;;;5111423;27;20051;-68
2022/10/12 12:15:46;;;;;;;8.82;2.00;;;15.80;50.40;;;;;;5102047;27;20043;-80
2022/10/12 12:18:19;;;;;;;7.13;1.70;;;15.80;46.80;;;;;;5119164;27;20114;-96
2022/10/12 12:20:45;;;;;;;8.85;2.25;;;15.80;53.70;;;;;;5121240;27;20122;-68
2022/10/12 12:23:32;;;;;;;11.05;2.65;;;15.90;52.20;;;;;;5124047;27;20177;-65
2022/10/12 12:26:09;;;;;;;9.23;1.83;;;16.00;49.10;;;;;;5118218;27;20074;-64
2022/10/12 12:28:39;;;;;;;5.60;1.58;;;16.00;48.30;;;;;;5138789;27;20047;-65
2022/10/12 12:31:21;;;;;;;7.35;1.92;;;16.10;47.90;;;;;;5136368;27;20099;-65
2022/10/12 12:33:50;;;;;;;9.27;1.40;;;16.10;41.10;;;;;;5149049;27;20039;-71
2022/10/12 12:36:31;;;;;;;;;;;16.20;41.20;;;;;;5149704;27;20457;-66
2022/10/12 12:38:57;;;;;;;9.32;1.77;;;16.30;46.40;;;;;;5130360;27;19926;-66
2022/10/12 12:41:46;;;;;;;8.70;2.05;;;16.30;34.00;;;;;;5149133;27;20051;-66
2022/10/12 12:44:37;;;;;;;6.80;2.10;;;16.20;37.70;;;;;;5116641;27;20097;-84
2022/10/12 12:47:02;;;;;;;6.78;1.83;;;16.30;47.20;;;;;;5142515;27;20070;-66
2022/10/12 12:49:42;;;;;;;14.25;1.90;;;16.30;37.40;;;;;;5149251;27;20067;-71
2022/10/12 12:52:13;;;;;;;5.13;2.00;;;16.30;41.80;;;;;;5148723;27;20085;-88
2022/10/12 12:55:14;;;;;;;6.38;1.25;;;16.30;39.60;;;;;;5129412;27;20396;-69
2022/10/12 12:58:02;;;;;;;7.95;1.85;;;16.30;32.30;;;;;;5126404;27;20062;-66
2022/10/12 13:01:03;;;;;;;9.38;1.75;;;16.40;36.60;;;;;;5146059;27;20043;-65
2022/10/12 13:03:35;;;;;;;11.43;1.83;;;16.30;29.30;;;;;;5144531;27;20046;-74
2022/10/12 13:06:01;;;;;;;8.25;1.95;;;16.30;32.10;;;;;;5146451;27;20047;-82
2022/10/12 13:08:32;;;;;;;12.20;2.15;;;16.30;36.60;;;;;;5126883;27;20094;-68